createdAt,value
2018-11-30T00:00:41.109Z,1004.45
2018-11-30T00:01:49.780Z,1004.5
2018-11-30T00:02:58.708Z,1004.53
2018-11-30T00:04:07.382Z,1004.53
2018-11-30T00:05:16.304Z,1004.5
2018-11-30T00:06:24.979Z,1004.48
2018-11-30T00:07:33.671Z,1004.48
2018-11-30T00:08:42.347Z,1004.4
2018-11-30T00:09:51.012Z,1004.4
2018-11-30T00:10:59.691Z,1004.44
2018-11-30T00:12:08.364Z,1004.45
2018-11-30T00:13:17.045Z,1004.43
2018-11-30T00:14:25.969Z,1004.44
2018-11-30T00:15:34.642Z,1004.46
2018-11-30T00:16:43.309Z,1004.44
2018-11-30T00:17:52.184Z,1004.41
2018-11-30T00:19:01.016Z,1004.41
2018-11-30T00:20:09.710Z,1004.45
2018-11-30T00:21:18.403Z,1004.39
2018-11-30T00:22:27.111Z,1004.44
2018-11-30T00:23:35.793Z,1004.47
2018-11-30T00:24:44.467Z,1004.45
2018-11-30T00:25:53.144Z,1004.47
2018-11-30T00:27:01.823Z,1004.47
2018-11-30T00:28:11.038Z,1004.48
2018-11-30T00:29:19.970Z,1004.49
2018-11-30T00:30:28.656Z,1004.5
2018-11-30T00:31:37.326Z,1004.44
2018-11-30T00:32:45.999Z,1004.46
2018-11-30T00:33:54.677Z,1004.46
2018-11-30T00:35:03.380Z,1004.47
2018-11-30T00:36:12.083Z,1004.42
2018-11-30T00:37:20.747Z,1004.47
2018-11-30T00:38:29.424Z,1004.41
2018-11-30T00:39:38.632Z,1004.45
2018-11-30T00:40:47.311Z,1004.41
2018-11-30T00:41:55.972Z,1004.35
2018-11-30T00:43:04.650Z,1004.36
2018-11-30T00:44:13.317Z,1004.4
2018-11-30T00:45:21.993Z,1004.38
2018-11-30T00:46:30.688Z,1004.34
2018-11-30T00:47:39.363Z,1004.35
2018-11-30T00:48:48.054Z,1004.38
2018-11-30T00:49:56.740Z,1004.28
2018-11-30T00:51:05.413Z,1004.33
2018-11-30T00:52:14.086Z,1004.32
2018-11-30T00:53:22.753Z,1004.28
2018-11-30T00:54:31.425Z,1004.25
2018-11-30T00:55:40.100Z,1004.23
2018-11-30T00:56:48.767Z,1004.28
2018-11-30T00:57:57.444Z,1004.26
2018-11-30T00:59:06.110Z,1004.23
2018-11-30T01:00:14.792Z,1004.24
2018-11-30T01:01:23.718Z,1004.28
2018-11-30T01:02:32.406Z,1004.31
2018-11-30T01:03:41.076Z,1004.32
2018-11-30T01:04:49.803Z,1004.26
2018-11-30T01:05:58.471Z,1004.23
2018-11-30T01:07:07.398Z,1004.29
2018-11-30T01:08:16.061Z,1004.32
2018-11-30T01:09:25.239Z,1004.31
2018-11-30T01:10:34.174Z,1004.34
2018-11-30T01:11:42.849Z,1004.29
2018-11-30T01:12:51.522Z,1004.28
2018-11-30T01:14:00.436Z,1004.33
2018-11-30T01:15:09.118Z,1004.37
2018-11-30T01:16:17.780Z,1004.36
2018-11-30T01:17:26.739Z,1004.34
2018-11-30T01:18:35.406Z,1004.35
2018-11-30T01:19:44.074Z,1004.37
2018-11-30T01:20:52.751Z,1004.39
2018-11-30T01:22:01.415Z,1004.45
2018-11-30T01:23:10.101Z,1004.39
2018-11-30T01:24:18.773Z,1004.39
2018-11-30T01:25:27.447Z,1004.36
2018-11-30T01:26:36.117Z,1004.37
2018-11-30T01:27:44.849Z,1004.36
2018-11-30T01:28:53.555Z,1004.38
2018-11-30T01:30:02.484Z,1004.4
2018-11-30T01:31:11.155Z,1004.42
2018-11-30T01:32:19.818Z,1004.43
2018-11-30T01:33:28.500Z,1004.38
2018-11-30T01:34:37.169Z,1004.39
2018-11-30T01:35:45.852Z,1004.38
2018-11-30T01:36:54.516Z,1004.36
2018-11-30T01:38:03.207Z,1004.36
2018-11-30T01:39:11.895Z,1004.39
2018-11-30T01:40:20.583Z,1004.37
2018-11-30T01:41:29.297Z,1004.38
2018-11-30T01:42:37.969Z,1004.39
2018-11-30T01:43:46.645Z,1004.41
2018-11-30T01:44:55.328Z,1004.4
2018-11-30T01:46:03.995Z,1004.4
2018-11-30T01:47:12.667Z,1004.41
2018-11-30T01:48:21.343Z,1004.41
2018-11-30T01:49:30.016Z,1004.39
2018-11-30T01:50:38.695Z,1004.39
2018-11-30T01:51:47.363Z,1004.41
2018-11-30T01:52:56.040Z,1004.4
2018-11-30T01:54:04.958Z,1004.36
2018-11-30T01:55:13.639Z,1004.38
2018-11-30T01:56:22.332Z,1004.38
2018-11-30T01:57:31.010Z,1004.34
2018-11-30T01:58:39.671Z,1004.34
2018-11-30T01:59:48.395Z,1004.35
2018-11-30T02:00:57.069Z,1004.33
2018-11-30T02:02:05.757Z,1004.35
2018-11-30T02:03:14.671Z,1004.39
2018-11-30T02:04:23.341Z,1004.39
2018-11-30T02:05:32.023Z,1004.38
2018-11-30T02:06:40.702Z,1004.41
2018-11-30T02:07:49.378Z,1004.46
2018-11-30T02:08:58.040Z,1004.49
2018-11-30T02:10:06.969Z,1004.47
2018-11-30T02:11:15.645Z,1004.45
2018-11-30T02:12:24.325Z,1004.48
2018-11-30T02:13:32.988Z,1004.49
2018-11-30T02:14:41.665Z,1004.46
2018-11-30T02:15:50.327Z,1004.47
2018-11-30T02:16:59.009Z,1004.44
2018-11-30T02:18:07.938Z,1004.44
2018-11-30T02:19:16.611Z,1004.4
2018-11-30T02:20:25.279Z,1004.37
2018-11-30T02:21:34.211Z,1004.42
2018-11-30T02:22:42.880Z,1004.49
2018-11-30T02:23:51.563Z,1004.52
2018-11-30T02:25:00.239Z,1004.52
2018-11-30T02:26:09.169Z,1004.54
2018-11-30T02:27:17.853Z,1004.52
2018-11-30T02:28:26.542Z,1004.53
2018-11-30T02:29:35.213Z,1004.52
2018-11-30T02:30:43.881Z,1004.53
2018-11-30T02:31:52.558Z,1004.55
2018-11-30T02:33:01.243Z,1004.52
2018-11-30T02:34:09.914Z,1004.53
2018-11-30T02:35:18.588Z,1004.53
2018-11-30T02:36:27.287Z,1004.53
2018-11-30T02:37:35.958Z,1004.51
2018-11-30T02:38:44.644Z,1004.5
2018-11-30T02:39:53.340Z,1004.47
2018-11-30T02:41:02.026Z,1004.48
2018-11-30T02:42:10.705Z,1004.42
2018-11-30T02:43:19.650Z,1004.43
2018-11-30T02:44:28.325Z,1004.39
2018-11-30T02:45:37.003Z,1004.39
2018-11-30T02:46:45.681Z,1004.36
2018-11-30T02:47:54.610Z,1004.39
2018-11-30T02:49:03.297Z,1004.34
2018-11-30T02:50:11.973Z,1004.35
2018-11-30T02:51:20.922Z,1004.38
2018-11-30T02:52:29.631Z,1004.38
2018-11-30T02:53:38.599Z,1004.3
2018-11-30T02:54:47.571Z,1004.29
2018-11-30T02:55:56.260Z,1004.3
2018-11-30T02:57:04.937Z,1004.29
2018-11-30T02:58:13.614Z,1004.32
2018-11-30T02:59:22.291Z,1004.26
2018-11-30T03:00:30.967Z,1004.32
2018-11-30T03:01:39.634Z,1004.34
2018-11-30T03:02:48.338Z,1004.31
2018-11-30T03:03:57.035Z,1004.23
2018-11-30T03:05:05.987Z,1004.21
2018-11-30T03:06:14.926Z,1004.2
2018-11-30T03:07:23.605Z,1004.23
2018-11-30T03:08:32.573Z,1004.28
2018-11-30T03:09:41.507Z,1004.33
2018-11-30T03:10:50.463Z,1004.26
2018-11-30T03:11:59.139Z,1004.34
2018-11-30T03:13:07.813Z,1004.31
2018-11-30T03:14:16.495Z,1004.26
2018-11-30T03:15:25.170Z,1004.29
2018-11-30T03:16:33.859Z,1004.26
2018-11-30T03:17:42.793Z,1004.3
2018-11-30T03:18:51.492Z,1004.26
2018-11-30T03:20:00.437Z,1004.31
2018-11-30T03:21:09.365Z,1004.25
2018-11-30T03:22:18.058Z,1004.27
2018-11-30T03:23:26.730Z,1004.23
2018-11-30T03:24:35.413Z,1004.21
2018-11-30T03:25:44.088Z,1004.21
2018-11-30T03:26:53.035Z,1004.25
2018-11-30T03:28:02.211Z,1004.27
2018-11-30T03:29:10.911Z,1004.25
2018-11-30T03:30:19.573Z,1004.25
2018-11-30T03:31:28.286Z,1004.31
2018-11-30T03:32:37.306Z,1004.23
2018-11-30T03:33:46.311Z,1004.13
2018-11-30T03:34:55.249Z,1004.14
2018-11-30T03:36:03.942Z,1004.15
2018-11-30T03:37:12.901Z,1004.17
2018-11-30T03:38:21.834Z,1004.18
2018-11-30T03:39:30.777Z,1004.15
2018-11-30T03:40:39.450Z,1004.15
2018-11-30T03:41:48.397Z,1004.16
2018-11-30T03:42:57.070Z,1004.16
2018-11-30T03:44:06.014Z,1004.11
2018-11-30T03:45:14.939Z,1004.14
2018-11-30T03:46:23.624Z,1004.16
2018-11-30T03:47:32.294Z,1004.19
2018-11-30T03:48:41.054Z,1004.2
2018-11-30T03:49:49.722Z,1004.24
2018-11-30T03:50:58.397Z,1004.2
2018-11-30T03:52:07.330Z,1004.21
2018-11-30T03:53:16.270Z,1004.23
2018-11-30T03:54:24.952Z,1004.25
2018-11-30T03:55:33.631Z,1004.3
2018-11-30T03:56:42.302Z,1004.29
2018-11-30T03:57:51.492Z,1004.25
2018-11-30T03:59:01.337Z,1004.24
2018-11-30T04:00:10.510Z,1004.24
2018-11-30T04:01:19.455Z,1004.27
2018-11-30T04:02:28.371Z,1004.3
2018-11-30T04:03:37.101Z,1004.24
2018-11-30T04:04:46.053Z,1004.26
2018-11-30T04:05:55.053Z,1004.32
2018-11-30T04:07:03.720Z,1004.3
2018-11-30T04:08:12.399Z,1004.29
2018-11-30T04:09:21.590Z,1004.29
2018-11-30T04:10:30.294Z,1004.28
2018-11-30T04:11:39.238Z,1004.27
2018-11-30T04:12:47.971Z,1004.28
2018-11-30T04:13:56.937Z,1004.25
2018-11-30T04:15:05.627Z,1004.26
2018-11-30T04:16:14.566Z,1004.25
2018-11-30T04:17:23.497Z,1004.27
2018-11-30T04:18:32.177Z,1004.25
2018-11-30T04:19:40.871Z,1004.2
2018-11-30T04:20:49.556Z,1004.16
2018-11-30T04:21:58.233Z,1004.18
2018-11-30T04:23:07.175Z,1004.16
2018-11-30T04:24:15.878Z,1004.18
2018-11-30T04:25:24.572Z,1004.19
2018-11-30T04:26:33.518Z,1004.12
2018-11-30T04:27:42.196Z,1004.17
2018-11-30T04:28:51.127Z,1004.18
2018-11-30T04:29:59.808Z,1004.17
2018-11-30T04:31:08.474Z,1004.21
2018-11-30T04:32:17.162Z,1004.18
2018-11-30T04:33:25.829Z,1004.14
2018-11-30T04:34:34.500Z,1004.14
2018-11-30T04:35:43.443Z,1004.17
2018-11-30T04:36:52.151Z,1004.21
2018-11-30T04:38:01.156Z,1004.26
2018-11-30T04:39:09.834Z,1004.23
2018-11-30T04:40:23.414Z,1004.2
2018-11-30T04:41:32.355Z,1004.21
2018-11-30T04:42:41.040Z,1004.25
2018-11-30T04:43:49.764Z,1004.23
2018-11-30T04:44:58.445Z,1004.21
2018-11-30T04:46:07.116Z,1004.23
2018-11-30T04:47:15.794Z,1004.22
2018-11-30T04:48:24.470Z,1004.22
2018-11-30T04:49:33.149Z,1004.21
2018-11-30T04:50:41.826Z,1004.17
2018-11-30T04:51:50.509Z,1004.18
2018-11-30T04:52:59.195Z,1004.16
2018-11-30T04:54:07.877Z,1004.14
2018-11-30T04:55:16.555Z,1004.17
2018-11-30T04:56:25.233Z,1004.17
2018-11-30T04:57:34.177Z,1004.2
2018-11-30T04:58:42.851Z,1004.26
2018-11-30T04:59:51.527Z,1004.25
2018-11-30T05:01:00.200Z,1004.26
2018-11-30T05:02:08.892Z,1004.24
2018-11-30T05:03:17.822Z,1004.27
2018-11-30T05:04:26.516Z,1004.28
2018-11-30T05:05:35.192Z,1004.3
2018-11-30T05:06:44.131Z,1004.27
2018-11-30T05:07:53.056Z,1004.24
2018-11-30T05:09:01.753Z,1004.24
2018-11-30T05:10:10.429Z,1004.24
2018-11-30T05:11:19.116Z,1004.28
2018-11-30T05:12:28.319Z,1004.27
2018-11-30T05:13:36.989Z,1004.29
2018-11-30T05:14:45.660Z,1004.26
2018-11-30T05:15:54.594Z,1004.31
2018-11-30T05:17:03.261Z,1004.29
2018-11-30T05:18:11.933Z,1004.28
2018-11-30T05:19:20.615Z,1004.33
2018-11-30T05:20:29.548Z,1004.34
2018-11-30T05:21:38.216Z,1004.29
2018-11-30T05:22:46.890Z,1004.25
2018-11-30T05:23:55.569Z,1004.22
2018-11-30T05:25:04.504Z,1004.19
2018-11-30T05:26:13.184Z,1004.21
2018-11-30T05:27:21.857Z,1004.22
2018-11-30T05:28:30.528Z,1004.22
2018-11-30T05:29:39.200Z,1004.24
2018-11-30T05:30:47.882Z,1004.25
2018-11-30T05:31:56.561Z,1004.28
2018-11-30T05:33:05.243Z,1004.33
2018-11-30T05:34:14.170Z,1004.33
2018-11-30T05:35:22.867Z,1004.33
2018-11-30T05:36:32.205Z,1004.39
2018-11-30T05:37:41.445Z,1004.39
2018-11-30T05:38:50.120Z,1004.42
2018-11-30T05:39:59.048Z,1004.48
2018-11-30T05:41:07.732Z,1004.46
2018-11-30T05:42:16.411Z,1004.41
2018-11-30T05:43:25.082Z,1004.44
2018-11-30T05:44:33.758Z,1004.42
2018-11-30T05:45:42.688Z,1004.41
2018-11-30T05:46:51.363Z,1004.37
2018-11-30T05:48:00.052Z,1004.35
2018-11-30T05:49:09.040Z,1004.37
2018-11-30T05:50:17.714Z,1004.4
2018-11-30T05:51:26.393Z,1004.41
2018-11-30T05:52:35.069Z,1004.42
2018-11-30T05:53:43.746Z,1004.37
2018-11-30T05:54:52.420Z,1004.37
2018-11-30T05:56:01.092Z,1004.38
2018-11-30T05:57:10.027Z,1004.34
2018-11-30T05:58:18.693Z,1004.38
2018-11-30T05:59:27.368Z,1004.39
2018-11-30T06:00:36.036Z,1004.38
2018-11-30T06:01:44.713Z,1004.41
2018-11-30T06:02:53.426Z,1004.43
2018-11-30T06:04:02.106Z,1004.39
2018-11-30T06:05:10.776Z,1004.43
2018-11-30T06:06:19.446Z,1004.41
2018-11-30T06:07:28.165Z,1004.37
2018-11-30T06:08:37.965Z,1004.4
2018-11-30T06:09:46.889Z,1004.4
2018-11-30T06:10:55.556Z,1004.37
2018-11-30T06:12:04.236Z,1004.42
2018-11-30T06:13:12.907Z,1004.41
2018-11-30T06:14:21.906Z,1004.36
2018-11-30T06:15:30.569Z,1004.38
2018-11-30T06:16:39.252Z,1004.38
2018-11-30T06:17:47.964Z,1004.41
2018-11-30T06:18:56.646Z,1004.41
2018-11-30T06:20:05.315Z,1004.41
2018-11-30T06:21:14.241Z,1004.41
2018-11-30T06:22:22.924Z,1004.45
2018-11-30T06:23:31.597Z,1004.42
2018-11-30T06:24:40.269Z,1004.42
2018-11-30T06:25:49.193Z,1004.44
2018-11-30T06:26:57.870Z,1004.43
2018-11-30T06:28:10.842Z,1004.47
2018-11-30T06:29:19.617Z,1004.46
2018-11-30T06:30:28.289Z,1004.46
2018-11-30T06:31:37.015Z,1004.48
2018-11-30T06:32:46.193Z,1004.52
2018-11-30T06:33:54.896Z,1004.47
2018-11-30T06:35:04.233Z,1004.46
2018-11-30T06:36:12.927Z,1004.46
2018-11-30T06:37:21.609Z,1004.47
2018-11-30T06:38:30.299Z,1004.44
2018-11-30T06:39:38.980Z,1004.46
2018-11-30T06:40:47.650Z,1004.46
2018-11-30T06:41:56.355Z,1004.43
2018-11-30T06:43:05.052Z,1004.46
2018-11-30T06:44:13.735Z,1004.44
2018-11-30T06:45:22.462Z,1004.5
2018-11-30T06:46:31.404Z,1004.49
2018-11-30T06:47:40.065Z,1004.5
2018-11-30T06:48:48.748Z,1004.45
2018-11-30T06:49:57.541Z,1004.5
2018-11-30T06:51:06.224Z,1004.49
2018-11-30T06:52:14.898Z,1004.47
2018-11-30T06:53:24.234Z,1004.43
2018-11-30T06:54:32.916Z,1004.42
2018-11-30T06:55:41.642Z,1004.45
2018-11-30T06:56:50.605Z,1004.43
2018-11-30T06:57:59.294Z,1004.44
2018-11-30T06:59:08.026Z,1004.39
2018-11-30T07:00:16.785Z,1004.45
2018-11-30T07:01:25.491Z,1004.53
2018-11-30T07:02:34.667Z,1004.6
2018-11-30T07:03:43.352Z,1004.6
2018-11-30T07:04:52.315Z,1004.57
2018-11-30T07:06:01.000Z,1004.52
2018-11-30T07:07:09.672Z,1004.54
2018-11-30T07:08:18.351Z,1004.53
2018-11-30T07:09:27.022Z,1004.57
2018-11-30T07:10:35.906Z,1004.64
2018-11-30T07:11:44.752Z,1004.65
2018-11-30T07:12:53.769Z,1004.63
2018-11-30T07:14:02.657Z,1004.65
2018-11-30T07:15:11.342Z,1004.63
2018-11-30T07:16:20.019Z,1004.64
2018-11-30T07:17:28.775Z,1004.65
2018-11-30T07:18:37.491Z,1004.7
2018-11-30T07:19:46.240Z,1004.74
2018-11-30T07:20:54.990Z,1004.72
2018-11-30T07:22:06.730Z,1004.78
2018-11-30T07:23:18.280Z,1004.81
2018-11-30T07:24:27.042Z,1004.81
2018-11-30T07:25:35.796Z,1004.81
2018-11-30T07:26:44.568Z,1004.8
2018-11-30T07:27:53.301Z,1004.77
2018-11-30T07:29:02.062Z,1004.78
2018-11-30T07:30:10.778Z,1004.81
2018-11-30T07:31:19.498Z,1004.77
2018-11-30T07:32:28.225Z,1004.84
2018-11-30T07:33:36.931Z,1004.77
2018-11-30T07:34:45.669Z,1004.79
2018-11-30T07:35:54.667Z,1004.82
2018-11-30T07:37:03.838Z,1004.82
2018-11-30T07:38:13.284Z,1004.86
2018-11-30T07:39:22.440Z,1004.91
2018-11-30T07:40:31.755Z,1004.87
2018-11-30T07:41:40.722Z,1004.88
2018-11-30T07:42:49.430Z,1004.91
2018-11-30T07:43:58.145Z,1004.86
2018-11-30T07:45:06.861Z,1004.89
2018-11-30T07:46:15.582Z,1004.91
2018-11-30T07:47:24.304Z,1004.96
2018-11-30T07:48:32.989Z,1005
2018-11-30T07:49:41.689Z,1005.03
2018-11-30T07:50:50.384Z,1005.06
2018-11-30T07:51:59.096Z,1005
2018-11-30T07:53:07.801Z,1004.98
2018-11-30T07:54:16.692Z,1004.99
2018-11-30T07:55:25.489Z,1004.96
2018-11-30T07:56:34.181Z,1005
2018-11-30T07:57:42.892Z,1005.06
2018-11-30T07:58:51.604Z,1005.08
2018-11-30T08:00:00.309Z,1005.09
2018-11-30T08:01:09.085Z,1005.12
2018-11-30T08:02:17.790Z,1005.06
2018-11-30T08:03:26.470Z,1005.1
2018-11-30T08:04:35.176Z,1005.09
2018-11-30T08:05:43.866Z,1005.13
2018-11-30T08:06:52.839Z,1005.15
2018-11-30T08:08:06.700Z,1005.17
2018-11-30T08:09:15.665Z,1005.14
2018-11-30T08:10:24.937Z,1005.12
2018-11-30T08:11:34.228Z,1005.11
2018-11-30T08:12:43.112Z,1005.1
2018-11-30T08:13:51.825Z,1005.08
2018-11-30T08:15:00.782Z,1005.13
2018-11-30T08:16:10.422Z,1005.12
2018-11-30T08:17:19.126Z,1005.09
2018-11-30T08:18:27.823Z,1005.13
2018-11-30T08:19:36.532Z,1005.13
2018-11-30T08:20:45.228Z,1005.1
2018-11-30T08:21:53.941Z,1005.14
2018-11-30T08:23:02.617Z,1005.16
2018-11-30T08:24:13.877Z,1005.16
2018-11-30T08:25:22.912Z,1005.17
2018-11-30T08:26:31.586Z,1005.19
2018-11-30T08:27:40.506Z,1005.19
2018-11-30T08:28:49.185Z,1005.22
2018-11-30T08:29:57.852Z,1005.25
2018-11-30T08:31:06.518Z,1005.21
2018-11-30T08:32:15.195Z,1005.24
2018-11-30T08:33:23.872Z,1005.26
2018-11-30T08:34:32.557Z,1005.23
2018-11-30T08:35:41.216Z,1005.23
2018-11-30T08:36:49.892Z,1005.23
2018-11-30T08:37:58.557Z,1005.24
2018-11-30T08:39:07.236Z,1005.31
2018-11-30T08:40:15.910Z,1005.31
2018-11-30T08:41:27.806Z,1005.36
2018-11-30T08:42:36.475Z,1005.36
2018-11-30T08:43:45.160Z,1005.35
2018-11-30T08:44:54.084Z,1005.36
2018-11-30T08:46:02.762Z,1005.34
2018-11-30T08:47:11.678Z,1005.35
2018-11-30T08:48:20.712Z,1005.35
2018-11-30T08:49:29.394Z,1005.36
2018-11-30T08:50:38.066Z,1005.36
2018-11-30T08:51:46.752Z,1005.34
2018-11-30T08:52:55.678Z,1005.35
2018-11-30T08:54:04.613Z,1005.32
2018-11-30T08:55:13.285Z,1005.34
2018-11-30T08:56:21.980Z,1005.4
2018-11-30T08:57:30.652Z,1005.43
2018-11-30T08:58:39.337Z,1005.4
2018-11-30T08:59:48.261Z,1005.37
2018-11-30T09:00:56.949Z,1005.4
2018-11-30T09:02:06.265Z,1005.43
2018-11-30T09:03:14.946Z,1005.47
2018-11-30T09:04:23.638Z,1005.47
2018-11-30T09:05:32.325Z,1005.45
2018-11-30T09:06:40.997Z,1005.49
2018-11-30T09:07:49.674Z,1005.41
2018-11-30T09:08:58.354Z,1005.45
2018-11-30T09:10:07.031Z,1005.51
2018-11-30T09:11:16.066Z,1005.48
2018-11-30T09:12:24.781Z,1005.45
2018-11-30T09:13:33.477Z,1005.42
2018-11-30T09:14:42.285Z,1005.44
2018-11-30T09:15:50.953Z,1005.46
2018-11-30T09:16:59.635Z,1005.48
2018-11-30T09:18:08.567Z,1005.46
2018-11-30T09:19:17.386Z,1005.46
2018-11-30T09:20:26.062Z,1005.46
2018-11-30T09:21:34.751Z,1005.49
2018-11-30T09:22:43.421Z,1005.45
2018-11-30T09:23:52.125Z,1005.47
2018-11-30T09:25:00.795Z,1005.48
2018-11-30T09:26:09.459Z,1005.52
2018-11-30T09:27:18.126Z,1005.46
2018-11-30T09:28:26.794Z,1005.49
2018-11-30T09:29:35.479Z,1005.47
2018-11-30T09:30:44.151Z,1005.49
2018-11-30T09:31:52.829Z,1005.51
2018-11-30T09:33:01.492Z,1005.51
2018-11-30T09:34:10.431Z,1005.52
2018-11-30T09:35:19.371Z,1005.52
2018-11-30T09:36:28.567Z,1005.52
2018-11-30T09:37:37.250Z,1005.57
2018-11-30T09:38:45.936Z,1005.58
2018-11-30T09:39:54.617Z,1005.54
2018-11-30T09:41:03.292Z,1005.57
2018-11-30T09:42:11.956Z,1005.53
2018-11-30T09:43:20.629Z,1005.54
2018-11-30T09:44:29.565Z,1005.52
2018-11-30T09:45:38.247Z,1005.56
2018-11-30T09:46:47.178Z,1005.53
2018-11-30T09:47:55.850Z,1005.54
2018-11-30T09:49:04.798Z,1005.54
2018-11-30T09:50:13.473Z,1005.57
2018-11-30T09:51:22.154Z,1005.51
2018-11-30T09:52:30.820Z,1005.51
2018-11-30T09:53:39.504Z,1005.5
2018-11-30T09:54:49.350Z,1005.53
2018-11-30T09:55:58.029Z,1005.52
2018-11-30T09:57:06.700Z,1005.54
2018-11-30T09:58:15.386Z,1005.53
2018-11-30T09:59:24.063Z,1005.53
2018-11-30T10:00:32.744Z,1005.53
2018-11-30T10:01:41.675Z,1005.49
2018-11-30T10:02:50.365Z,1005.5
2018-11-30T10:03:59.040Z,1005.47
2018-11-30T10:05:08.231Z,1005.48
2018-11-30T10:06:16.932Z,1005.42
2018-11-30T10:07:25.609Z,1005.49
2018-11-30T10:08:34.545Z,1005.5
2018-11-30T10:09:43.475Z,1005.47
2018-11-30T10:10:52.152Z,1005.51
2018-11-30T10:12:00.838Z,1005.49
2018-11-30T10:13:09.510Z,1005.49
2018-11-30T10:14:18.176Z,1005.5
2018-11-30T10:15:26.852Z,1005.51
2018-11-30T10:16:35.526Z,1005.57
2018-11-30T10:17:44.212Z,1005.5
2018-11-30T10:18:52.879Z,1005.48
2018-11-30T10:20:01.816Z,1005.52
2018-11-30T10:21:10.500Z,1005.5
2018-11-30T10:22:19.181Z,1005.46
2018-11-30T10:23:27.859Z,1005.45
2018-11-30T10:24:36.536Z,1005.5
2018-11-30T10:25:45.227Z,1005.51
2018-11-30T10:26:53.900Z,1005.55
2018-11-30T10:28:02.575Z,1005.53
2018-11-30T10:29:11.250Z,1005.53
2018-11-30T10:30:19.920Z,1005.54
2018-11-30T10:31:28.591Z,1005.49
2018-11-30T10:32:37.270Z,1005.48
2018-11-30T10:33:45.940Z,1005.46
2018-11-30T10:34:54.889Z,1005.42
2018-11-30T10:36:03.569Z,1005.44
2018-11-30T10:37:12.500Z,1005.45
2018-11-30T10:38:21.186Z,1005.45
2018-11-30T10:39:29.869Z,1005.45
2018-11-30T10:40:38.797Z,1005.47
2018-11-30T10:41:47.720Z,1005.46
2018-11-30T10:42:56.697Z,1005.41
2018-11-30T10:44:05.365Z,1005.44
2018-11-30T10:45:14.040Z,1005.49
2018-11-30T10:46:22.709Z,1005.5
2018-11-30T10:47:31.390Z,1005.5
2018-11-30T10:48:40.063Z,1005.48
2018-11-30T10:49:48.735Z,1005.47
2018-11-30T10:50:57.403Z,1005.49
2018-11-30T10:52:06.089Z,1005.5
2018-11-30T10:53:14.776Z,1005.48
2018-11-30T10:54:23.710Z,1005.43
2018-11-30T10:55:32.377Z,1005.45
2018-11-30T10:56:41.308Z,1005.5
2018-11-30T10:57:49.989Z,1005.46
2018-11-30T11:01:01.509Z,1005.38
2018-11-30T11:02:10.175Z,1005.35
2018-11-30T11:03:18.859Z,1005.4
2018-11-30T11:04:27.522Z,1005.39
2018-11-30T11:05:36.196Z,1005.39
2018-11-30T11:06:45.130Z,1005.34
2018-11-30T11:07:53.813Z,1005.36
2018-11-30T11:09:02.473Z,1005.38
2018-11-30T11:10:11.158Z,1005.32
2018-11-30T11:11:19.827Z,1005.34
2018-11-30T11:12:28.762Z,1005.32
2018-11-30T11:13:37.430Z,1005.34
2018-11-30T11:14:46.359Z,1005.32
2018-11-30T11:15:55.079Z,1005.36
2018-11-30T11:17:04.048Z,1005.37
2018-11-30T11:18:12.987Z,1005.38
2018-11-30T11:19:21.664Z,1005.37
2018-11-30T11:20:30.342Z,1005.35
2018-11-30T11:21:39.056Z,1005.3
2018-11-30T11:22:47.769Z,1005.32
2018-11-30T11:23:56.440Z,1005.35
2018-11-30T11:25:05.133Z,1005.35
2018-11-30T11:26:13.813Z,1005.38
2018-11-30T11:27:22.500Z,1005.36
2018-11-30T11:28:31.439Z,1005.29
2018-11-30T11:29:40.127Z,1005.32
2018-11-30T11:30:49.059Z,1005.32
2018-11-30T11:31:57.738Z,1005.29
2018-11-30T11:33:06.424Z,1005.25
2018-11-30T11:34:15.107Z,1005.29
2018-11-30T11:35:23.786Z,1005.25
2018-11-30T11:36:32.712Z,1005.27
2018-11-30T11:37:41.411Z,1005.26
2018-11-30T11:38:50.092Z,1005.3
2018-11-30T11:39:59.307Z,1005.29
2018-11-30T11:41:07.988Z,1005.29
2018-11-30T11:42:16.676Z,1005.31
2018-11-30T11:43:25.852Z,1005.35
2018-11-30T11:44:34.595Z,1005.34
2018-11-30T11:45:43.275Z,1005.3
2018-11-30T11:46:51.960Z,1005.32
2018-11-30T11:48:00.637Z,1005.34
2018-11-30T11:49:09.574Z,1005.34
2018-11-30T11:50:18.258Z,1005.32
2018-11-30T11:51:26.969Z,1005.33
2018-11-30T11:52:35.653Z,1005.33
2018-11-30T11:53:44.329Z,1005.31
2018-11-30T11:54:53.013Z,1005.31
2018-11-30T11:56:01.962Z,1005.32
2018-11-30T11:57:10.702Z,1005.3
2018-11-30T11:58:19.429Z,1005.28
2018-11-30T11:59:28.110Z,1005.32
2018-11-30T12:00:36.794Z,1005.35
2018-11-30T12:01:45.720Z,1005.36
2018-11-30T12:02:54.402Z,1005.33
2018-11-30T12:04:03.078Z,1005.31
2018-11-30T12:05:11.747Z,1005.31
2018-11-30T12:06:20.422Z,1005.28
2018-11-30T12:07:29.346Z,1005.3
2018-11-30T12:08:38.877Z,1005.26
2018-11-30T12:09:47.802Z,1005.28
2018-11-30T12:10:56.481Z,1005.28
2018-11-30T12:12:05.157Z,1005.33
2018-11-30T12:13:13.831Z,1005.29
2018-11-30T12:14:22.509Z,1005.32
2018-11-30T12:15:31.179Z,1005.32
2018-11-30T12:16:39.866Z,1005.31
2018-11-30T12:17:48.796Z,1005.33
2018-11-30T12:18:57.473Z,1005.29
2018-11-30T12:20:06.210Z,1005.32
2018-11-30T12:21:15.404Z,1005.28
2018-11-30T12:22:24.072Z,1005.22
2018-11-30T12:23:32.750Z,1005.26
2018-11-30T12:24:41.420Z,1005.24
2018-11-30T12:25:50.103Z,1005.26
2018-11-30T12:26:58.772Z,1005.24
2018-11-30T12:28:07.451Z,1005.25
2018-11-30T12:29:16.394Z,1005.26
2018-11-30T12:30:26.278Z,1005.25
2018-11-30T12:31:34.958Z,1005.26
2018-11-30T12:32:43.634Z,1005.23
2018-11-30T12:33:52.313Z,1005.19
2018-11-30T12:35:01.016Z,1005.18
2018-11-30T12:36:09.992Z,1005.16
2018-11-30T12:37:18.670Z,1005.15
2018-11-30T12:38:27.762Z,1005.13
2018-11-30T12:39:37.859Z,1005.14
2018-11-30T12:40:47.028Z,1005.16
2018-11-30T12:41:55.765Z,1005.13
2018-11-30T12:43:04.534Z,1005.15
2018-11-30T12:44:13.213Z,1005.15
2018-11-30T12:45:22.154Z,1005.14
2018-11-30T12:46:30.828Z,1005.11
2018-11-30T12:47:39.506Z,1005.14
2018-11-30T12:48:48.431Z,1005.14
2018-11-30T12:49:57.107Z,1005.14
2018-11-30T12:51:06.000Z,1005.16
2018-11-30T12:52:14.937Z,1005.13
2018-11-30T12:53:23.625Z,1005.15
2018-11-30T12:54:32.557Z,1005.2
2018-11-30T12:55:41.234Z,1005.15
2018-11-30T12:56:49.909Z,1005.16
2018-11-30T12:57:58.590Z,1005.18
2018-11-30T12:59:07.519Z,1005.18
2018-11-30T13:00:17.664Z,1005.18
2018-11-30T13:01:26.365Z,1005.15
2018-11-30T13:02:35.046Z,1005.15
2018-11-30T13:03:43.724Z,1005.16
2018-11-30T13:04:52.397Z,1005.11
2018-11-30T13:06:01.084Z,1005.11
2018-11-30T13:07:09.759Z,1005.14
2018-11-30T13:08:18.426Z,1005.1
2018-11-30T13:09:27.106Z,1005.13
2018-11-30T13:10:36.039Z,1005.11
2018-11-30T13:11:44.724Z,1005.06
2018-11-30T13:12:53.395Z,1005.07
2018-11-30T13:14:02.074Z,1005.11
2018-11-30T13:15:10.777Z,1005.12
2018-11-30T13:16:19.715Z,1005.09
2018-11-30T13:17:28.381Z,1005.06
2018-11-30T13:18:37.058Z,1005.07
2018-11-30T13:19:45.726Z,1005.03
2018-11-30T13:20:54.407Z,1005.06
2018-11-30T13:22:03.339Z,1005.05
2018-11-30T13:23:12.026Z,1005.06
2018-11-30T13:24:20.719Z,1005.07
2018-11-30T13:25:29.392Z,1005.02
2018-11-30T13:26:38.071Z,1005.12
2018-11-30T13:27:47.008Z,1005.1
2018-11-30T13:28:55.689Z,1005.05
2018-11-30T13:30:04.354Z,1005.07
2018-11-30T13:31:13.292Z,1005.1
2018-11-30T13:32:21.980Z,1005.11
2018-11-30T13:33:30.662Z,1005.1
2018-11-30T13:34:39.345Z,1005.07
2018-11-30T13:35:48.555Z,1005.08
2018-11-30T13:36:57.749Z,1005.06
2018-11-30T13:38:06.454Z,1005.12
2018-11-30T13:39:15.127Z,1005.13
2018-11-30T13:40:23.804Z,1005.14
2018-11-30T13:41:32.490Z,1005.13
2018-11-30T13:42:41.169Z,1005.15
2018-11-30T13:43:49.850Z,1005.12
2018-11-30T13:44:58.522Z,1005.16
2018-11-30T13:46:07.200Z,1005.11
2018-11-30T13:47:16.127Z,1005.17
2018-11-30T13:48:24.807Z,1005.13
2018-11-30T13:49:33.514Z,1005.13
2018-11-30T13:50:42.189Z,1005.11
2018-11-30T13:51:50.872Z,1005.14
2018-11-30T13:52:59.547Z,1005.15
2018-11-30T13:54:08.248Z,1005.09
2018-11-30T13:55:17.003Z,1005.11
2018-11-30T13:56:25.676Z,1005.11